KTRM/TRM METAR and TAF weather

Enter ICAO airport designator
Station Type Date Time Source
KTRM METAR 2022/06/27 07:52 UTC NOAA

KTRM 270752Z AUTO 13012G19KT 10SM CLR 32/20 A2996 RMK AO2 SLP147 T03170200 404170217 $


Station Type Date Time Source
KTRM Decoded METAR 2022/06/27 07:52 UTC NOAA

Palm Springs, Jacqueline Cochran Regional Airport, CA, United States (KTRM) 33-37-36N 116-09-34W
Jun 27, 2022 - 03:52 AM EDT / 2022.06.27 0752 UTC
Wind: from the SE (130 degrees) at 14 MPH (12 KT) gusting to 22 MPH (19 KT):0
Visibility: 10 mile(s):0
Sky conditions: clear
Temperature: 89.1 F (31.7 C)
Dew Point: 68.0 F (20.0 C)
Relative Humidity: 49%
Pressure (altimeter): 29.96 in. Hg (1014 hPa)
ob: KTRM 270752Z AUTO 13012G19KT 10SM CLR 32/20 A2996 RMK AO2 SLP147 T03170200 404170217
cycle: 8

Station Type Date Time Source
KTRM TAF 2022/06/27 07:06 UTC NOAA

TAF
AMD KTRM 270705Z 2707/2806 14010G18KT P6SM SKC
FM270900 14006KT P6SM FEW025 FEW150
FM272000 14010KT P6SM BKN120
FM280300 VRB05KT P6SM SCT120

Example: see airport list